Time;durP1;ratioP1;P1;durP2;ratioP2;P2;SDS_P1;SDS_P2;PMS_P1;PMS_P2;Temp;Humidity;BMP_temperature;BMP_pressure;BME280_temperature;BME280_humidity;BME280_pressure;Samples;Min_cycle;Max_cycle;Signal;HPM_P1;HPM_P2
2023/08/20 00:01:09;;;;;;;13.93;5.50;;;16.30;99.90;;;;;;6211675;23;20020;-89
2023/08/20 00:03:35;;;;;;;8.20;5.57;;;16.40;99.90;;;;;;6192090;23;20023;-96
2023/08/20 00:06:03;;;;;;;14.73;5.90;;;16.40;99.90;;;;;;6192870;23;20015;-96
2023/08/20 00:08:29;;;;;;;11.63;5.40;;;16.30;99.90;;;;;;6191931;23;20016;-96
2023/08/20 00:10:58;;;;;;;14.43;6.00;;;16.30;99.90;;;;;;6192371;23;20044;-96
2023/08/20 00:13:24;;;;;;;16.50;6.00;;;16.30;99.90;;;;;;6215209;23;20016;-96
2023/08/20 00:15:50;;;;;;;9.90;5.25;;;16.30;99.90;;;;;;6215865;23;20009;-96
2023/08/20 00:18:19;;;;;;;11.18;5.45;;;16.30;99.90;;;;;;6214753;23;20035;-96
2023/08/20 00:20:45;;;;;;;11.93;5.82;;;16.30;99.90;;;;;;6191095;23;20019;-96
2023/08/20 00:23:15;;;;;;;11.10;5.95;;;16.30;99.90;;;;;;6191856;23;20017;-96
2023/08/20 00:25:41;;;;;;;9.57;5.93;;;16.30;99.90;;;;;;6190939;23;20020;-96
2023/08/20 00:28:07;;;;;;;10.80;5.40;;;16.40;99.90;;;;;;6193839;23;20017;-96
2023/08/20 00:30:33;;;;;;;16.42;6.45;;;16.30;99.90;;;;;;6216814;23;20031;-96
2023/08/20 00:32:58;;;;;;;9.65;5.88;;;16.30;99.90;;;;;;6213657;23;20017;-96
2023/08/20 00:35:24;;;;;;;9.93;5.80;;;16.30;99.90;;;;;;6194986;23;20078;-96
2023/08/20 00:37:50;;;;;;;11.15;5.72;;;16.30;99.90;;;;;;6226687;23;20083;-96
2023/08/20 00:40:19;;;;;;;12.18;5.88;;;16.30;99.90;;;;;;6199481;23;20070;-96
2023/08/20 00:42:50;;;;;;;11.90;5.88;;;16.30;99.90;;;;;;6203126;23;20040;-96
2023/08/20 00:45:16;;;;;;;7.93;5.20;;;16.20;99.90;;;;;;6201170;23;20127;-96
2023/08/20 00:56:17;;;;;;;11.43;5.50;;;16.20;99.90;;;;;;6146610;23;20260;-97
2023/08/20 01:01:41;;;;;;;10.70;5.85;;;16.20;99.90;;;;;;6160391;23;20029;-95
2023/08/20 01:04:11;;;;;;;12.13;6.05;;;16.10;99.90;;;;;;6156014;23;20017;-94
2023/08/20 01:07:21;;;;;;;10.75;6.22;;;16.10;99.90;;;;;;6146987;23;20041;-97
2023/08/20 01:09:57;;;;;;;12.90;6.45;;;16.20;99.90;;;;;;6149003;23;20021;-96
2023/08/20 01:12:27;;;;;;;19.20;7.07;;;16.20;99.90;;;;;;6147771;23;20336;-96
2023/08/20 01:14:53;;;;;;;15.02;7.80;;;16.20;99.90;;;;;;6167574;23;20024;-96
2023/08/20 01:17:19;;;;;;;11.15;5.88;;;16.20;99.90;;;;;;6136694;23;20077;-96
2023/08/20 01:19:46;;;;;;;9.23;6.07;;;16.20;99.90;;;;;;6131746;23;20444;-96
2023/08/20 01:22:22;;;;;;;15.95;6.05;;;16.10;99.90;;;;;;6131545;23;20092;-96
2023/08/20 01:25:00;;;;;;;9.85;5.25;;;16.10;99.90;;;;;;6131835;23;20022;-95
2023/08/20 01:28:02;;;;;;;12.77;6.65;;;16.00;99.90;;;;;;6131914;23;20009;-96
2023/08/20 01:30:29;;;;;;;12.00;6.28;;;;;;;;;;6144150;23;20090;-96
2023/08/20 01:32:56;;;;;;;12.93;6.10;;;;;;;;;;6161320;23;20013;-96
2023/08/20 01:35:25;;;;;;;11.70;6.73;;;;;;;;;;6138260;23;20013;-94
2023/08/20 01:37:51;;;;;;;10.73;6.28;;;;;;;;;;6132015;23;20241;-96
2023/08/20 01:40:17;;;;;;;12.13;6.28;;;;;;;;;;6144116;23;20005;-96
2023/08/20 01:42:43;;;;;;;13.77;6.80;;;;;;;;;;6148156;23;20009;-96
2023/08/20 01:45:10;;;;;;;9.05;5.90;;;;;;;;;;6161063;23;20022;-96
2023/08/20 01:47:36;;;;;;;11.35;6.28;;;;;;;;;;6133466;23;20014;-96
2023/08/20 01:50:03;;;;;;;10.77;6.35;;;;;;;;;;6155777;23;20021;-96
2023/08/20 01:52:32;;;;;;;12.90;6.55;;;;;;;;;;6157680;23;20014;-96
2023/08/20 01:54:59;;;;;;;8.70;6.00;;;;;;;;;;6130145;23;20021;-96
2023/08/20 01:57:25;;;;;;;11.87;6.53;;;;;;;;;;6155144;23;20018;-96
2023/08/20 01:59:51;;;;;;;11.82;6.65;;;;;;;;;;6129987;23;20261;-96
2023/08/20 02:02:17;;;;;;;13.10;6.28;;;;;;;;;;6154524;23;20473;-96
2023/08/20 02:04:43;;;;;;;10.10;6.28;;;;;;;;;;6129414;23;20101;-96
2023/08/20 02:07:09;;;;;;;13.18;6.82;;;;;;;;;;6156182;23;20424;-95
2023/08/20 02:09:36;;;;;;;15.27;6.90;;;;;;;;;;6130929;23;20009;-94
2023/08/20 02:12:02;;;;;;;12.73;6.40;;;;;;;;;;6130857;23;20115;-96
2023/08/20 02:14:28;;;;;;;10.52;7.15;;;;;;;;;;6131491;23;20018;-96
2023/08/20 02:16:55;;;;;;;10.70;6.35;;;;;;;;;;6136996;23;20017;-95
2023/08/20 02:19:21;;;;;;;13.25;6.93;;;;;;;;;;6166586;23;20025;-94
2023/08/20 02:21:47;;;;;;;7.72;5.90;;;;;;;;;;6140068;23;20076;-95
2023/08/20 02:24:13;;;;;;;8.80;6.20;;;;;;;;;;6146950;23;20020;-95
2023/08/20 02:26:39;;;;;;;9.68;6.95;;;;;;;;;;6165391;23;20045;-95
2023/08/20 02:29:06;;;;;;;12.10;6.75;;;;;;;;;;6148319;23;20017;-96
2023/08/20 02:36:44;;;;;;;17.58;10.30;;;;;;;;;;6136509;23;20021;-95
2023/08/20 02:39:10;;;;;;;14.63;9.98;;;;;;;;;;6214043;23;20025;-94
2023/08/20 02:41:36;;;;;;;12.63;9.68;;;;;;;;;;6190461;23;20020;-96
2023/08/20 02:44:02;;;;;;;13.85;8.93;;;;;;;;;;6189139;23;20036;-96
2023/08/20 02:46:29;;;;;;;16.38;11.93;;;;;;;;;;6190889;23;20055;-96
2023/08/20 02:48:55;;;;;;;15.95;11.32;;;;;;;;;;6212997;23;20020;-95
2023/08/20 02:51:21;;;;;;;17.92;10.35;;;;;;;;;;6214597;23;20063;-95
2023/08/20 02:53:47;;;;;;;16.73;11.45;;;;;;;;;;6188335;23;20017;-95
2023/08/20 02:58:49;;;;;;;15.90;10.38;;;;;;;;;;6134739;23;20056;-96
2023/08/20 03:01:27;;;;;;;12.90;9.88;;;;;;;;;;6200816;23;20067;-96
2023/08/20 03:03:59;;;;;;;12.10;10.18;;;;;;;;;;6207653;23;20027;-96
2023/08/20 03:06:34;;;;;;;11.45;9.30;;;;;;;;;;6215171;23;20020;-96
2023/08/20 03:09:04;;;;;;;12.90;9.30;;;;;;;;;;6212588;23;20047;-96
2023/08/20 03:11:36;;;;;;;12.88;9.15;;;;;;;;;;6186257;23;20021;-96
2023/08/20 03:14:12;;;;;;;14.85;9.05;;;;;;;;;;6204986;23;20021;-96
2023/08/20 03:16:38;;;;;;;13.88;9.30;;;;;;;;;;6209890;22;20083;-96
2023/08/20 03:19:04;;;;;;;15.00;10.18;;;;;;;;;;6205882;23;20016;-96
2023/08/20 03:21:31;;;;;;;11.38;9.50;;;;;;;;;;6233057;22;20005;-96
2023/08/20 03:24:00;;;;;;;13.73;10.63;;;;;;;;;;6214302;23;20032;-96
2023/08/20 03:26:26;;;;;;;15.70;10.57;;;;;;;;;;6235637;23;20013;-96
2023/08/20 03:28:52;;;;;;;18.83;11.75;;;;;;;;;;6215312;23;20016;-96
2023/08/20 03:33:50;;;;;;;13.57;11.20;;;;;;;;;;6202930;23;20056;-96
2023/08/20 03:36:17;;;;;;;14.68;11.07;;;;;;;;;;6147061;23;20052;-96
2023/08/20 03:38:43;;;;;;;13.52;10.18;;;;;;;;;;6140577;23;20028;-96
2023/08/20 03:41:09;;;;;;;13.20;10.35;;;;;;;;;;6163709;23;20442;-96
2023/08/20 03:43:35;;;;;;;14.25;11.32;;;;;;;;;;6164193;23;20073;-96
2023/08/20 03:46:02;;;;;;;12.55;10.23;;;;;;;;;;6138204;23;20021;-96
2023/08/20 03:48:28;;;;;;;15.35;10.48;;;;;;;;;;6135624;23;20021;-96
2023/08/20 03:50:54;;;;;;;13.38;10.65;;;;;;;;;;6136307;23;20017;-96
2023/08/20 03:53:20;;;;;;;14.60;10.85;;;;;;;;;;6160223;23;20009;-96
2023/08/20 03:55:50;;;;;;;14.57;10.10;;;;;;;;;;6135670;23;20021;-96
2023/08/20 03:58:16;;;;;;;15.15;10.85;;;;;;;;;;6136868;23;20549;-96
2023/08/20 04:00:42;;;;;;;18.80;11.55;;;;;;;;;;6134723;23;20064;-94
2023/08/20 04:03:08;;;;;;;16.35;11.10;;;;;;;;;;6133230;23;20025;-96
2023/08/20 04:05:38;;;;;;;14.70;11.25;;;;;;;;;;6159242;23;20045;-95
2023/08/20 04:08:05;;;;;;;12.38;9.75;;;;;;;;;;6139368;23;20518;-96
2023/08/20 04:10:31;;;;;;;13.20;11.80;;;;;;;;;;6169927;23;20022;-96
2023/08/20 04:12:57;;;;;;;17.70;13.23;;;;;;;;;;6149644;23;20028;-96
2023/08/20 04:15:29;;;;;;;13.93;11.40;;;;;;;;;;6154085;23;20005;-96
2023/08/20 04:17:55;;;;;;;16.83;13.00;;;;;;;;;;6151235;23;20020;-96
2023/08/20 04:20:21;;;;;;;16.30;12.50;;;;;;;;;;6154579;23;20017;-96
2023/08/20 04:22:48;;;;;;;14.73;12.75;;;;;;;;;;6173795;23;20020;-96
2023/08/20 04:25:14;;;;;;;20.43;14.10;;;;;;;;;;6171248;23;20017;-96
2023/08/20 04:27:41;;;;;;;18.45;13.82;;;;;;;;;;6167207;23;20013;-96
2023/08/20 04:30:07;;;;;;;18.25;13.57;;;15.40;99.90;;;;;;6169705;23;20527;-96
2023/08/20 04:32:33;;;;;;;19.83;15.20;;;15.40;99.90;;;;;;6144107;23;20066;-95
2023/08/20 04:34:59;;;;;;;17.38;13.93;;;15.50;99.90;;;;;;6136958;23;20017;-96
2023/08/20 04:37:25;;;;;;;17.95;14.07;;;15.40;99.90;;;;;;6139151;23;20052;-96
2023/08/20 04:39:56;;;;;;;21.40;14.00;;;15.40;99.90;;;;;;6160677;23;20020;-96
2023/08/20 04:42:22;;;;;;;15.70;13.02;;;15.50;99.90;;;;;;6159286;23;20327;-95
2023/08/20 04:44:48;;;;;;;17.38;12.88;;;15.40;99.90;;;;;;6158780;23;20013;-96
2023/08/20 04:47:13;;;;;;;18.55;13.57;;;15.40;99.90;;;;;;6136247;23;20013;-96
2023/08/20 04:49:39;;;;;;;16.70;13.68;;;15.40;99.90;;;;;;6161409;23;20009;-96
2023/08/20 04:52:05;;;;;;;16.23;12.07;;;15.50;99.90;;;;;;6162456;23;20080;-96
2023/08/20 04:54:31;;;;;;;15.07;12.65;;;15.50;99.90;;;;;;6161307;23;20028;-96
2023/08/20 04:56:57;;;;;;;15.75;12.75;;;15.50;99.90;;;;;;6162456;23;20442;-96
2023/08/20 04:59:26;;;;;;;13.98;12.18;;;15.60;99.90;;;;;;6139454;23;20045;-96
2023/08/20 05:01:52;;;;;;;15.90;12.45;;;15.60;99.90;;;;;;6145556;23;20021;-96
2023/08/20 05:04:17;;;;;;;16.55;13.57;;;15.70;99.90;;;;;;6142172;23;20013;-96
2023/08/20 05:06:43;;;;;;;15.02;12.43;;;15.70;99.90;;;;;;6146133;23;20009;-95
2023/08/20 05:09:09;;;;;;;17.10;13.02;;;15.90;99.90;;;;;;6145494;23;20017;-96
2023/08/20 05:11:35;;;;;;;20.27;13.40;;;15.90;99.90;;;;;;6169470;23;20024;-96
2023/08/20 05:14:01;;;;;;;19.10;13.60;;;15.90;99.90;;;;;;6136427;23;20009;-96
2023/08/20 05:16:33;;;;;;;15.52;12.25;;;15.90;99.90;;;;;;6138486;23;20024;-96
2023/08/20 05:18:59;;;;;;;16.65;12.93;;;16.00;99.90;;;;;;6160688;23;20009;-96
2023/08/20 05:21:25;;;;;;;14.55;12.60;;;16.10;99.90;;;;;;6136701;23;20028;-95
2023/08/20 05:23:51;;;;;;;15.18;11.73;;;16.20;99.90;;;;;;6147988;23;20068;-96
2023/08/20 05:26:16;;;;;;;12.38;11.05;;;16.30;99.90;;;;;;6145904;23;20013;-95
2023/08/20 05:28:42;;;;;;;16.92;12.02;;;16.30;99.90;;;;;;6164075;23;20188;-95
2023/08/20 05:31:08;;;;;;;17.25;11.95;;;16.40;99.90;;;;;;6139303;23;20378;-96
2023/08/20 05:36:28;;;;;;;14.23;11.30;;;16.60;99.90;;;;;;6198423;23;20028;-96
2023/08/20 05:38:58;;;;;;;14.40;11.30;;;16.80;99.90;;;;;;6162923;23;20035;-96
2023/08/20 05:41:24;;;;;;;18.05;12.73;;;;;;;;;;6152717;23;20024;-96
2023/08/20 05:43:50;;;;;;;16.25;11.88;;;17.60;99.90;;;;;;6115611;23;20030;-96
2023/08/20 05:46:16;;;;;;;13.95;12.48;;;18.50;99.90;;;;;;6114215;23;20025;-96
2023/08/20 05:48:42;;;;;;;15.07;13.45;;;19.60;99.90;;;;;;6090426;23;20024;-96
2023/08/20 05:51:10;;;;;;;13.27;11.57;;;20.60;99.90;;;;;;6114825;23;20042;-96
2023/08/20 05:53:36;;;;;;;16.50;10.60;;;21.40;99.90;;;;;;6091498;23;20029;-95
2023/08/20 05:56:04;;;;;;;13.88;10.95;;;22.10;99.90;;;;;;6082385;23;20014;-96
2023/08/20 05:58:30;;;;;;;14.43;9.77;;;22.90;99.90;;;;;;6090137;23;20030;-95
2023/08/20 06:00:56;;;;;;;12.43;9.20;;;23.40;99.90;;;;;;6098655;23;20052;-96
2023/08/20 06:03:24;;;;;;;12.30;9.00;;;24.00;99.90;;;;;;6095242;23;20001;-96
2023/08/20 06:06:01;;;;;;;14.65;8.85;;;24.50;99.90;;;;;;6119315;23;20462;-96
2023/08/20 06:08:27;;;;;;;12.88;8.50;;;25.00;99.90;;;;;;6097353;23;20009;-96
2023/08/20 06:10:53;;;;;;;10.23;8.38;;;25.20;99.90;;;;;;6097668;23;20018;-96
2023/08/20 06:13:19;;;;;;;11.48;8.18;;;25.60;99.90;;;;;;6096402;23;20024;-96
2023/08/20 06:15:45;;;;;;;13.90;7.97;;;25.90;99.90;;;;;;6087971;23;20046;-96
2023/08/20 06:18:11;;;;;;;10.55;7.65;;;26.30;99.90;;;;;;6086304;23;20049;-96
2023/08/20 06:20:36;;;;;;;9.65;7.28;;;26.60;99.90;;;;;;6132935;23;20014;-94
2023/08/20 06:23:02;;;;;;;9.27;7.25;;;26.90;99.90;;;;;;6105098;23;20483;-96
2023/08/20 06:25:31;;;;;;;9.48;6.80;;;27.20;99.90;;;;;;6078083;23;20045;-91
2023/08/20 06:27:57;;;;;;;8.93;6.45;;;27.40;99.90;;;;;;6102901;23;20084;-91
2023/08/20 06:30:23;;;;;;;11.90;6.68;;;27.70;99.90;;;;;;6097186;23;20014;-91
2023/08/20 06:32:48;;;;;;;10.00;6.03;;;28.00;99.90;;;;;;6106765;23;20013;-96
2023/08/20 06:35:14;;;;;;;9.57;6.03;;;28.30;99.90;;;;;;6103083;23;20017;-96
2023/08/20 06:37:40;;;;;;;8.77;6.32;;;28.50;99.90;;;;;;6107158;23;20021;-96
2023/08/20 06:40:07;;;;;;;8.82;6.38;;;28.70;99.90;;;;;;6108056;23;20018;-96
2023/08/20 06:42:33;;;;;;;9.98;5.50;;;29.00;99.90;;;;;;6133469;23;20451;-96
2023/08/20 06:44:59;;;;;;;9.95;5.97;;;28.90;99.90;;;;;;6141262;23;20025;-96
2023/08/20 06:47:25;;;;;;;9.90;6.13;;;29.10;99.90;;;;;;6147306;23;20028;-96
2023/08/20 07:23:30;;;;;;;7.07;4.20;;;30.00;99.90;;;;;;6122454;22;20054;-96
2023/08/20 07:28:56;;;;;;;7.00;3.63;;;29.70;99.90;;;;;;6244132;23;20028;-96
2023/08/20 07:31:50;;;;;;;6.22;3.65;;;28.90;99.90;;;;;;6241918;23;20013;-96
2023/08/20 07:44:31;;;;;;;5.57;2.58;;;25.80;99.90;;;;;;6265919;23;20087;-96
2023/08/20 07:47:00;;;;;;;10.47;2.87;;;25.50;99.90;;;;;;6181564;23;20025;-96
2023/08/20 07:49:29;;;;;;;7.95;3.13;;;25.30;99.90;;;;;;6235862;22;20540;-96
2023/08/20 07:54:30;;;;;;;6.15;2.70;;;24.90;99.90;;;;;;6263475;22;20513;-89
2023/08/20 07:56:55;;;;;;;8.02;2.70;;;24.70;99.90;;;;;;6217217;23;20042;-90
2023/08/20 07:59:21;;;;;;;10.15;3.00;;;24.70;99.90;;;;;;6215888;23;20055;-92
2023/08/20 08:01:48;;;;;;;9.15;2.45;;;24.70;99.90;;;;;;6242703;23;20043;-92
2023/08/20 08:04:14;;;;;;;6.97;2.53;;;24.70;99.90;;;;;;6215187;23;20095;-90
2023/08/20 08:06:40;;;;;;;6.75;2.25;;;24.60;99.90;;;;;;6240515;23;20469;-91
2023/08/20 08:09:19;;;;;;;8.13;2.40;;;;;;;;;;6212699;23;20018;-88
2023/08/20 08:11:44;;;;;;;7.25;2.40;;;24.40;99.90;;;;;;6244799;23;20016;-94
2023/08/20 08:14:11;;;;;;;8.07;2.40;;;24.60;99.90;;;;;;6243201;22;20012;-92
2023/08/20 08:16:37;;;;;;;4.65;1.67;;;24.60;99.90;;;;;;6242803;22;20020;-96
2023/08/20 08:19:03;;;;;;;5.47;1.85;;;24.70;99.90;;;;;;6221528;23;20438;-95
2023/08/20 08:21:28;;;;;;;7.10;2.00;;;24.60;99.90;;;;;;6197763;23;20008;-95
2023/08/20 08:23:55;;;;;;;7.38;2.67;;;24.70;99.90;;;;;;6195784;23;20020;-96
2023/08/20 08:26:20;;;;;;;4.85;1.40;;;24.80;99.90;;;;;;6196772;23;20047;-95
2023/08/20 08:28:46;;;;;;;5.63;1.73;;;24.80;99.90;;;;;;6248432;23;20573;-96
2023/08/20 08:31:12;;;;;;;8.10;1.60;;;24.90;99.90;;;;;;6225807;23;20334;-96
2023/08/20 08:33:37;;;;;;;6.03;1.50;;;24.80;99.90;;;;;;6250037;23;20337;-96
2023/08/20 08:36:03;;;;;;;3.40;1.50;;;24.90;99.90;;;;;;6221672;23;20012;-96
2023/08/20 08:38:29;;;;;;;3.80;1.30;;;25.00;99.90;;;;;;6224685;23;20065;-94
2023/08/20 08:40:56;;;;;;;5.35;1.48;;;25.00;99.90;;;;;;6202998;23;20043;-95
2023/08/20 08:43:22;;;;;;;4.57;1.50;;;25.10;99.90;;;;;;6238626;22;20044;-95
2023/08/20 08:45:48;;;;;;;5.43;1.55;;;25.00;99.90;;;;;;6206681;23;20012;-95
2023/08/20 08:48:15;;;;;;;4.00;1.27;;;24.90;99.90;;;;;;6208597;23;20020;-95
2023/08/20 08:50:41;;;;;;;3.65;0.98;;;24.90;99.90;;;;;;6224256;23;20004;-93
2023/08/20 08:53:07;;;;;;;3.58;1.35;;;25.10;99.90;;;;;;6197482;23;20094;-95
2023/08/20 08:55:34;;;;;;;4.55;1.65;;;25.10;99.90;;;;;;6225842;23;20337;-94
2023/08/20 08:57:59;;;;;;;4.45;1.20;;;25.20;99.90;;;;;;6197803;23;20020;-93
2023/08/20 09:00:25;;;;;;;3.05;1.45;;;25.30;99.90;;;;;;6222198;23;20019;-93
2023/08/20 09:02:51;;;;;;;4.72;1.33;;;25.40;99.90;;;;;;6222364;23;20430;-93
2023/08/20 09:05:17;;;;;;;2.97;1.35;;;25.60;99.90;;;;;;6199275;23;20016;-93
2023/08/20 09:07:44;;;;;;;2.85;1.30;;;25.50;99.90;;;;;;6202526;23;20008;-93
2023/08/20 09:10:10;;;;;;;4.78;1.80;;;25.60;99.90;;;;;;6254938;23;20008;-90
2023/08/20 09:12:35;;;;;;;5.47;1.70;;;25.60;99.90;;;;;;6247412;23;20102;-93
2023/08/20 09:15:01;;;;;;;6.20;1.75;;;25.60;99.90;;;;;;6246632;23;20334;-93
2023/08/20 09:17:28;;;;;;;3.67;1.48;;;25.80;99.90;;;;;;6196497;23;20082;-94
2023/08/20 09:19:58;;;;;;;6.03;1.77;;;25.80;99.90;;;;;;6198570;23;20016;-92
2023/08/20 09:22:24;;;;;;;3.38;1.40;;;25.90;99.90;;;;;;6192289;23;20047;-91
2023/08/20 09:24:57;;;;;;;3.92;1.50;;;25.80;99.90;;;;;;6218837;23;20012;-94
2023/08/20 09:27:23;;;;;;;7.03;1.67;;;25.90;99.90;;;;;;6246227;23;20078;-93
2023/08/20 09:29:55;;;;;;;4.68;1.23;;;26.10;99.90;;;;;;6217829;23;20294;-94
2023/08/20 09:32:23;;;;;;;4.30;1.83;;;26.00;99.90;;;;;;6219029;23;20010;-93
2023/08/20 09:34:53;;;;;;;5.10;1.52;;;26.10;99.90;;;;;;6195689;23;20031;-93
2023/08/20 09:37:21;;;;;;;4.60;1.58;;;26.10;99.90;;;;;;6236461;23;20460;-93
2023/08/20 09:39:47;;;;;;;4.20;1.45;;;26.10;99.90;;;;;;6198355;23;20016;-92
2023/08/20 09:42:14;;;;;;;6.15;1.30;;;26.00;99.90;;;;;;6207386;23;20008;-94
2023/08/20 09:44:44;;;;;;;4.03;1.43;;;26.10;99.90;;;;;;6196372;23;20008;-93
2023/08/20 09:47:12;;;;;;;3.10;1.08;;;26.00;99.90;;;;;;6194672;23;20255;-92
2023/08/20 09:49:39;;;;;;;3.38;1.23;;;26.00;99.90;;;;;;6217612;23;20026;-93
2023/08/20 09:52:09;;;;;;;1.63;0.88;;;26.10;99.90;;;;;;6196598;23;20016;-93
2023/08/20 09:54:35;;;;;;;3.10;1.20;;;26.10;99.90;;;;;;6248158;23;20015;-93
2023/08/20 09:57:07;;;;;;;3.03;1.10;;;26.10;99.90;;;;;;6198335;23;20016;-94
2023/08/20 09:59:35;;;;;;;5.35;1.42;;;26.20;99.90;;;;;;6247745;23;20012;-94
2023/08/20 10:02:01;;;;;;;3.88;1.10;;;26.10;99.90;;;;;;6194881;23;20023;-94
2023/08/20 10:04:28;;;;;;;3.63;1.02;;;26.10;99.90;;;;;;6218474;23;20008;-94
2023/08/20 10:06:55;;;;;;;3.60;1.10;;;26.10;99.90;;;;;;6194271;23;20016;-93
2023/08/20 10:09:22;;;;;;;5.38;1.02;;;26.10;99.90;;;;;;6218899;23;20015;-92
2023/08/20 10:11:47;;;;;;;;;;;26.10;99.90;;;;;;6194071;23;20019;-93
2023/08/20 10:14:13;;;;;;;4.45;1.17;;;26.20;99.90;;;;;;6193512;23;19911;-94
2023/08/20 10:16:39;;;;;;;2.95;1.02;;;26.20;99.90;;;;;;6245335;23;20146;-92
2023/08/20 10:19:08;;;;;;;3.03;1.10;;;26.20;99.90;;;;;;6218048;23;20023;-90
2023/08/20 10:21:34;;;;;;;3.90;1.20;;;26.20;99.90;;;;;;6193201;23;20342;-95
2023/08/20 10:24:06;;;;;;;3.40;1.25;;;26.40;99.90;;;;;;6192571;23;20453;-94
2023/08/20 10:26:34;;;;;;;4.97;1.40;;;26.40;99.90;;;;;;6193425;23;20019;-93
2023/08/20 10:29:36;;;;;;;5.97;1.30;;;26.50;99.90;;;;;;6217184;23;20020;-89
2023/08/20 10:32:04;;;;;;;4.55;1.40;;;26.60;99.90;;;;;;6195798;23;20015;-91
2023/08/20 10:34:38;;;;;;;4.28;1.40;;;26.60;99.90;;;;;;6193413;23;20031;-91
2023/08/20 10:37:10;;;;;;;4.82;1.20;;;26.50;99.90;;;;;;6221849;23;20020;-92
2023/08/20 10:39:36;;;;;;;2.63;1.10;;;26.50;99.90;;;;;;6192349;23;20012;-91
2023/08/20 10:42:22;;;;;;;3.83;1.13;;;26.50;99.90;;;;;;6192713;23;20020;-91
2023/08/20 10:45:10;;;;;;;2.60;0.93;;;26.60;99.90;;;;;;6218059;23;20012;-90
2023/08/20 10:47:42;;;;;;;3.78;1.35;;;26.80;99.90;;;;;;6243512;23;20083;-93
2023/08/20 10:50:14;;;;;;;3.50;1.38;;;26.70;99.90;;;;;;6192449;23;20015;-92
2023/08/20 10:52:41;;;;;;;5.72;1.30;;;26.60;99.90;;;;;;6193162;23;20051;-91
2023/08/20 10:55:10;;;;;;;4.43;1.20;;;26.70;99.90;;;;;;6217605;23;20018;-96
2023/08/20 10:57:36;;;;;;;3.15;1.05;;;26.60;99.90;;;;;;6217028;23;20115;-90
2023/08/20 11:00:13;;;;;;;4.28;1.40;;;26.60;99.90;;;;;;6214299;23;20069;-90
2023/08/20 11:02:41;;;;;;;4.05;1.58;;;26.50;99.90;;;;;;6217777;23;20055;-91
2023/08/20 11:05:24;;;;;;;5.28;1.40;;;26.50;99.90;;;;;;6193140;23;20024;-91
2023/08/20 11:07:50;;;;;;;4.13;1.25;;;26.40;99.90;;;;;;6245833;23;20518;-92
2023/08/20 11:10:16;;;;;;;4.40;1.50;;;26.60;99.90;;;;;;6194759;23;20004;-91
2023/08/20 11:12:46;;;;;;;4.57;1.52;;;26.60;99.90;;;;;;6217898;23;20012;-93
2023/08/20 11:15:12;;;;;;;4.15;1.60;;;26.70;99.90;;;;;;6218384;23;20015;-93
2023/08/20 11:17:48;;;;;;;3.60;1.10;;;26.80;99.90;;;;;;6193386;23;20052;-93
2023/08/20 11:20:16;;;;;;;4.10;1.27;;;26.80;99.90;;;;;;6219842;23;20020;-93
2023/08/20 11:22:42;;;;;;;5.40;1.55;;;26.80;99.90;;;;;;6219169;23;20016;-94
2023/08/20 11:25:12;;;;;;;4.70;1.40;;;26.90;99.90;;;;;;6229286;23;20016;-95
2023/08/20 11:27:42;;;;;;;3.95;1.40;;;26.90;99.90;;;;;;6224587;23;20012;-95
2023/08/20 11:30:11;;;;;;;5.15;1.10;;;27.00;99.90;;;;;;6205814;23;20012;-95
2023/08/20 11:32:37;;;;;;;6.38;1.50;;;27.00;99.90;;;;;;6224326;23;20055;-95
2023/08/20 11:35:04;;;;;;;4.45;1.40;;;27.20;99.90;;;;;;6232312;23;20505;-96
2023/08/20 11:37:31;;;;;;;2.97;1.05;;;27.30;99.90;;;;;;6201990;23;20024;-95
2023/08/20 11:39:57;;;;;;;4.18;1.48;;;27.20;99.90;;;;;;6227350;23;20059;-96
2023/08/20 11:42:23;;;;;;;4.80;1.13;;;27.10;99.90;;;;;;6205131;23;20008;-96
2023/08/20 11:44:49;;;;;;;2.92;1.20;;;27.20;99.90;;;;;;6227097;23;20079;-95
2023/08/20 11:47:19;;;;;;;5.15;1.35;;;27.40;99.90;;;;;;6206541;23;20504;-95
2023/08/20 11:49:45;;;;;;;3.67;1.15;;;27.40;99.90;;;;;;6197915;23;20093;-91
2023/08/20 11:52:14;;;;;;;4.03;1.33;;;27.40;99.90;;;;;;6224389;23;20016;-96
2023/08/20 11:54:42;;;;;;;4.30;0.90;;;27.30;99.90;;;;;;6199979;23;20035;-95
2023/08/20 11:57:07;;;;;;;3.92;1.17;;;27.30;99.90;;;;;;6221942;23;20437;-96
2023/08/20 11:59:34;;;;;;;4.60;1.30;;;27.30;99.90;;;;;;6197048;23;20020;-95
2023/08/20 12:02:01;;;;;;;3.43;1.10;;;27.30;99.90;;;;;;6198579;23;20012;-96
2023/08/20 12:04:29;;;;;;;;;;;27.30;99.90;;;;;;6227529;23;20012;-96
2023/08/20 12:07:24;;;;;;;3.70;0.88;;;27.00;99.90;;;;;;6198512;23;19930;-95
2023/08/20 12:09:50;;;;;;;3.28;1.13;;;27.20;99.90;;;;;;6222423;23;20017;-95
2023/08/20 12:12:19;;;;;;;2.73;0.87;;;27.10;99.90;;;;;;6197341;23;20035;-96
2023/08/20 12:14:45;;;;;;;2.85;1.00;;;27.20;99.90;;;;;;6220794;23;20016;-96
2023/08/20 12:17:11;;;;;;;2.45;0.85;;;27.30;99.90;;;;;;6223747;23;20077;-95
2023/08/20 12:19:36;;;;;;;4.65;1.10;;;27.40;99.90;;;;;;6212076;23;20063;-96
2023/08/20 12:22:03;;;;;;;4.43;1.08;;;27.40;99.90;;;;;;6230571;23;20012;-96
2023/08/20 12:24:29;;;;;;;2.78;0.90;;;27.50;99.90;;;;;;6214268;23;20063;-94
2023/08/20 12:26:55;;;;;;;1.83;0.80;;;27.50;99.90;;;;;;6223021;23;20043;-94
2023/08/20 12:29:20;;;;;;;2.70;1.00;;;27.70;99.90;;;;;;6195978;23;20331;-94
2023/08/20 12:31:46;;;;;;;4.63;1.20;;;27.70;99.90;;;;;;6219411;23;20030;-93
2023/08/20 12:34:12;;;;;;;2.55;1.00;;;27.80;99.90;;;;;;6195234;23;20013;-93
2023/08/20 12:36:38;;;;;;;2.05;0.73;;;27.40;99.90;;;;;;6219863;23;20008;-93
2023/08/20 12:39:04;;;;;;;1.92;0.75;;;27.60;99.90;;;;;;6219871;23;20019;-94
2023/08/20 12:41:31;;;;;;;3.85;0.90;;;27.70;99.90;;;;;;6220310;23;20065;-95
2023/08/20 12:43:58;;;;;;;3.65;0.68;;;27.90;99.90;;;;;;6196136;23;20012;-95
2023/08/20 12:46:23;;;;;;;1.80;1.07;;;28.00;99.90;;;;;;6194582;23;20012;-93
2023/08/20 12:48:49;;;;;;;1.85;0.70;;;28.00;99.90;;;;;;6219136;23;20255;-94
2023/08/20 12:51:17;;;;;;;2.28;0.80;;;28.00;99.90;;;;;;6194463;23;20016;-93
2023/08/20 12:53:43;;;;;;;1.80;0.65;;;27.90;99.90;;;;;;6201330;23;20012;-95
2023/08/20 12:56:09;;;;;;;2.70;1.07;;;27.90;99.90;;;;;;6194992;23;20094;-95
2023/08/20 12:58:35;;;;;;;3.00;0.75;;;28.20;99.90;;;;;;6199667;23;20020;-96
2023/08/20 13:01:01;;;;;;;2.97;0.90;;;28.40;99.90;;;;;;6199705;23;20015;-92
2023/08/20 13:03:28;;;;;;;1.23;0.68;;;28.20;99.90;;;;;;6226523;23;20016;-93
2023/08/20 13:05:56;;;;;;;2.70;1.00;;;27.90;99.90;;;;;;6195215;23;20523;-95
2023/08/20 13:08:26;;;;;;;3.40;0.98;;;27.60;99.90;;;;;;6228257;23;20011;-96
2023/08/20 13:10:57;;;;;;;2.83;0.88;;;27.80;99.90;;;;;;6235612;23;20016;-96
2023/08/20 13:13:24;;;;;;;2.33;0.70;;;28.00;99.90;;;;;;6205085;23;20012;-95
2023/08/20 13:15:53;;;;;;;1.20;0.70;;;28.00;99.90;;;;;;6205906;23;20019;-96
2023/08/20 13:18:24;;;;;;;3.53;0.90;;;28.00;99.90;;;;;;6206797;23;20016;-96
2023/08/20 13:20:52;;;;;;;2.63;0.80;;;28.10;99.90;;;;;;6200468;23;20031;-96
2023/08/20 13:23:17;;;;;;;6.28;1.40;;;27.90;99.90;;;;;;6196913;23;20022;-96
2023/08/20 13:25:43;;;;;;;3.00;1.00;;;28.10;99.90;;;;;;6197339;23;20103;-94
2023/08/20 13:28:09;;;;;;;3.20;0.93;;;28.10;99.90;;;;;;6195630;23;20575;-95
2023/08/20 13:30:34;;;;;;;2.83;0.98;;;28.10;99.90;;;;;;6197013;23;20051;-95
2023/08/20 13:33:00;;;;;;;2.35;0.93;;;28.00;99.90;;;;;;6196069;23;20067;-93
2023/08/20 13:35:26;;;;;;;2.95;1.20;;;28.10;99.90;;;;;;6191420;23;20042;-95
2023/08/20 13:37:52;;;;;;;2.85;1.00;;;28.30;99.90;;;;;;6218678;23;20012;-92
2023/08/20 13:40:18;;;;;;;2.78;0.90;;;27.80;99.90;;;;;;6194706;23;20054;-94
2023/08/20 13:42:44;;;;;;;3.42;1.10;;;27.80;99.90;;;;;;6197627;23;20012;-96
2023/08/20 13:45:10;;;;;;;2.92;0.98;;;27.90;99.90;;;;;;6195628;23;20074;-95
2023/08/20 13:47:35;;;;;;;4.22;0.98;;;28.20;99.90;;;;;;6220727;23;20058;-93
2023/08/20 13:50:04;;;;;;;5.47;0.98;;;28.10;99.90;;;;;;6217157;23;20097;-92
2023/08/20 13:52:29;;;;;;;3.00;0.90;;;28.30;99.90;;;;;;6193523;23;20065;-92
2023/08/20 13:54:55;;;;;;;7.03;1.00;;;27.90;99.90;;;;;;6218619;23;20093;-92
2023/08/20 13:57:21;;;;;;;4.95;1.10;;;27.90;99.90;;;;;;6192235;23;20446;-93
2023/08/20 13:59:47;;;;;;;3.67;1.10;;;27.90;99.90;;;;;;6192671;23;20047;-92
2023/08/20 14:02:13;;;;;;;5.90;1.10;;;28.00;99.90;;;;;;6193584;23;20453;-92
2023/08/20 14:04:38;;;;;;;3.63;1.30;;;28.00;99.90;;;;;;6192990;23;20367;-93
2023/08/20 14:07:04;;;;;;;3.47;0.90;;;28.00;99.90;;;;;;6219216;23;20020;-93
2023/08/20 14:09:30;;;;;;;6.13;1.40;;;28.10;99.90;;;;;;6231870;23;20012;-93
2023/08/20 14:11:55;;;;;;;3.63;1.10;;;28.20;99.90;;;;;;6219499;23;20019;-91
2023/08/20 14:14:21;;;;;;;3.35;1.00;;;28.10;99.90;;;;;;6232329;23;20471;-93
2023/08/20 14:16:46;;;;;;;5.25;1.30;;;28.10;99.90;;;;;;6194004;23;20060;-93
2023/08/20 14:19:12;;;;;;;3.83;1.23;;;28.00;99.90;;;;;;6219391;23;20016;-93